| Date | Time | Temp. (oF) | Dew Point (oF) | Rel. Hum. (%) | Press. (in.) | Wind Dir. | Wind Speed (mph) | Hourly Rainfall (in.) |
|
|---|---|---|---|---|---|---|---|---|---|
| 1 | 11/09 | 00:00 | 50 | 39 | 66 | 29.69 | NNW | 0 | 0.00 |
| 2 | 11/08 | 23:00 | 51 | 39 | 64 | 29.68 | NNW | 0 | 0.00 |
| 3 | 11/08 | 22:00 | 52 | 38 | 61 | 29.69 | NNW | 2 | 0.00 |
| 4 | 11/08 | 21:00 | 53 | 38 | 57 | 29.67 | NW | 6 | 0.00 |
| 5 | 11/08 | 20:00 | 54 | 39 | 59 | 29.67 | NNW | 7 | 0.00 |
| 6 | 11/08 | 19:00 | 55 | 43 | 64 | 29.66 | NNW | 7 | 0.00 |
| 7 | 11/08 | 18:00 | 57 | 45 | 66 | 29.63 | NNW | 9 | 0.00 |
| 8 | 11/08 | 17:00 | 57 | 52 | 84 | 29.60 | SE | 0 | 0.00 |
| 9 | 11/08 | 16:00 | 60 | 51 | 73 | 29.59 | E | 0 | 0.00 |
| 10 | 11/08 | 15:00 | 62 | 49 | 63 | 29.58 | WSW | 0 | 0.00 |
| 11 | 11/08 | 14:00 | 61 | 51 | 71 | 29.59 | ESE | 0 | 0.00 |
| 12 | 11/08 | 13:00 | 59 | 52 | 78 | 29.61 | NW | 2 | 0.00 |
| 13 | 11/08 | 12:00 | 58 | 51 | 80 | 29.63 | NNW | 5 | 0.00 |
| 14 | 11/08 | 11:00 | 59 | 58 | 99 | 29.66 | W | 0 | 0.00 |
| 15 | 11/08 | 10:00 | 58 | 58 | 100 | 29.67 | SSW | 0 | 0.00 |
| 16 | 11/08 | 09:00 | 57 | 57 | 100 | 29.68 | SE | 0 | 0.00 |
| 17 | 11/08 | 08:00 | 57 | 57 | 100 | 29.68 | SW | 0 | 0.00 |
| 18 | 11/08 | 07:00 | 57 | 57 | 100 | 29.69 | SSW | 4 | 0.01 |
| 19 | 11/08 | 06:00 | 57 | 57 | 100 | 29.65 | ENE | 4 | 0.00 |
| 20 | 11/08 | 05:00 | 57 | 57 | 100 | 29.69 | SE | 8 | 0.00 |
| 21 | 11/08 | 04:00 | 57 | 57 | 100 | 29.70 | S | 6 | 0.00 |
| 22 | 11/08 | 03:00 | 57 | 57 | 100 | 29.72 | S | 5 | 0.00 |
| 23 | 11/08 | 02:00 | 57 | 57 | 100 | 29.73 | S | 3 | 0.00 |
| 24 | 11/08 | 01:00 | 57 | 57 | 100 | 29.74 | S | 6 | 0.00 |